sensor_id;sensor_type;location;lat;lon;timestamp;P1;durP1;ratioP1;P2;durP2;ratioP2
55461;SDS011;41327;45.102;20.624;2022-07-10T00:01:23;4.20;;;1.55;;
55461;SDS011;41327;45.102;20.624;2022-07-10T00:03:49;3.58;;;1.67;;
55461;SDS011;41327;45.102;20.624;2022-07-10T00:06:15;3.63;;;1.50;;
55461;SDS011;41327;45.102;20.624;2022-07-10T00:08:43;2.33;;;1.58;;
55461;SDS011;41327;45.102;20.624;2022-07-10T00:11:09;3.00;;;1.80;;
55461;SDS011;41327;45.102;20.624;2022-07-10T00:13:35;3.15;;;1.60;;
55461;SDS011;41327;45.102;20.624;2022-07-10T00:16:01;3.05;;;1.85;;
55461;SDS011;41327;45.102;20.624;2022-07-10T00:18:29;4.45;;;1.50;;
55461;SDS011;41327;45.102;20.624;2022-07-10T00:20:55;2.72;;;1.38;;
55461;SDS011;41327;45.102;20.624;2022-07-10T00:23:20;3.10;;;1.40;;
55461;SDS011;41327;45.102;20.624;2022-07-10T00:25:46;3.55;;;1.58;;
55461;SDS011;41327;45.102;20.624;2022-07-10T00:28:12;2.67;;;1.42;;
55461;SDS011;41327;45.102;20.624;2022-07-10T00:30:37;5.18;;;2.10;;
55461;SDS011;41327;45.102;20.624;2022-07-10T00:33:04;3.42;;;1.35;;
55461;SDS011;41327;45.102;20.624;2022-07-10T00:35:30;3.25;;;1.42;;
55461;SDS011;41327;45.102;20.624;2022-07-10T00:37:55;2.33;;;2.13;;
55461;SDS011;41327;45.102;20.624;2022-07-10T00:40:21;2.10;;;1.65;;
55461;SDS011;41327;45.102;20.624;2022-07-10T00:42:47;2.78;;;1.58;;
55461;SDS011;41327;45.102;20.624;2022-07-10T00:45:12;3.05;;;1.38;;
55461;SDS011;41327;45.102;20.624;2022-07-10T00:47:38;2.90;;;1.42;;
55461;SDS011;41327;45.102;20.624;2022-07-10T00:50:04;2.90;;;1.60;;
55461;SDS011;41327;45.102;20.624;2022-07-10T00:52:31;2.17;;;1.58;;
55461;SDS011;41327;45.102;20.624;2022-07-10T00:54:58;1.83;;;1.40;;
55461;SDS011;41327;45.102;20.624;2022-07-10T00:57:24;3.47;;;1.48;;
55461;SDS011;41327;45.102;20.624;2022-07-10T00:59:49;2.28;;;1.35;;
55461;SDS011;41327;45.102;20.624;2022-07-10T01:02:15;2.58;;;1.50;;
55461;SDS011;41327;45.102;20.624;2022-07-10T01:04:41;3.22;;;1.30;;
55461;SDS011;41327;45.102;20.624;2022-07-10T01:07:07;3.08;;;1.48;;
55461;SDS011;41327;45.102;20.624;2022-07-10T01:09:33;2.25;;;1.45;;
55461;SDS011;41327;45.102;20.624;2022-07-10T01:12:02;2.33;;;0.90;;
55461;SDS011;41327;45.102;20.624;2022-07-10T01:14:28;2.88;;;1.90;;
55461;SDS011;41327;45.102;20.624;2022-07-10T01:16:55;1.27;;;1.02;;
55461;SDS011;41327;45.102;20.624;2022-07-10T01:19:21;1.42;;;1.20;;
55461;SDS011;41327;45.102;20.624;2022-07-10T01:21:46;1.40;;;1.27;;
55461;SDS011;41327;45.102;20.624;2022-07-10T01:24:11;1.65;;;1.30;;
55461;SDS011;41327;45.102;20.624;2022-07-10T01:26:37;1.60;;;1.30;;
55461;SDS011;41327;45.102;20.624;2022-07-10T01:29:07;1.48;;;1.27;;
55461;SDS011;41327;45.102;20.624;2022-07-10T01:31:33;2.20;;;1.45;;
55461;SDS011;41327;45.102;20.624;2022-07-10T01:33:59;1.90;;;1.20;;
55461;SDS011;41327;45.102;20.624;2022-07-10T01:36:25;1.20;;;1.02;;
55461;SDS011;41327;45.102;20.624;2022-07-10T01:38:53;2.20;;;1.35;;
55461;SDS011;41327;45.102;20.624;2022-07-10T01:41:19;1.55;;;1.27;;
55461;SDS011;41327;45.102;20.624;2022-07-10T01:43:46;1.77;;;1.30;;
55461;SDS011;41327;45.102;20.624;2022-07-10T01:46:13;1.65;;;1.23;;
55461;SDS011;41327;45.102;20.624;2022-07-10T01:48:39;2.33;;;1.23;;
55461;SDS011;41327;45.102;20.624;2022-07-10T01:51:05;3.92;;;1.45;;
55461;SDS011;41327;45.102;20.624;2022-07-10T01:53:30;2.47;;;1.27;;
55461;SDS011;41327;45.102;20.624;2022-07-10T01:55:56;1.70;;;1.40;;
55461;SDS011;41327;45.102;20.624;2022-07-10T01:58:22;2.30;;;1.13;;
55461;SDS011;41327;45.102;20.624;2022-07-10T02:00:47;2.05;;;1.27;;
55461;SDS011;41327;45.102;20.624;2022-07-10T02:03:13;1.65;;;1.27;;
55461;SDS011;41327;45.102;20.624;2022-07-10T02:05:57;1.65;;;1.42;;
55461;SDS011;41327;45.102;20.624;2022-07-10T02:08:23;1.67;;;1.30;;
55461;SDS011;41327;45.102;20.624;2022-07-10T02:10:49;1.60;;;1.30;;
55461;SDS011;41327;45.102;20.624;2022-07-10T02:13:14;2.13;;;1.33;;
55461;SDS011;41327;45.102;20.624;2022-07-10T02:15:42;2.35;;;1.50;;
55461;SDS011;41327;45.102;20.624;2022-07-10T02:18:08;1.70;;;1.13;;
55461;SDS011;41327;45.102;20.624;2022-07-10T02:20:33;1.75;;;1.00;;
55461;SDS011;41327;45.102;20.624;2022-07-10T02:23:00;2.25;;;1.30;;
55461;SDS011;41327;45.102;20.624;2022-07-10T02:25:26;1.23;;;1.13;;
55461;SDS011;41327;45.102;20.624;2022-07-10T02:27:51;1.30;;;1.20;;
55461;SDS011;41327;45.102;20.624;2022-07-10T02:30:17;3.40;;;1.45;;
55461;SDS011;41327;45.102;20.624;2022-07-10T02:32:42;1.85;;;1.30;;
55461;SDS011;41327;45.102;20.624;2022-07-10T02:35:08;1.42;;;1.10;;
55461;SDS011;41327;45.102;20.624;2022-07-10T02:37:34;1.33;;;1.05;;
55461;SDS011;41327;45.102;20.624;2022-07-10T02:40:00;1.60;;;1.13;;
55461;SDS011;41327;45.102;20.624;2022-07-10T02:42:25;1.73;;;1.00;;
55461;SDS011;41327;45.102;20.624;2022-07-10T02:44:51;1.17;;;1.00;;
55461;SDS011;41327;45.102;20.624;2022-07-10T02:47:16;1.15;;;1.00;;
55461;SDS011;41327;45.102;20.624;2022-07-10T02:49:42;1.58;;;1.20;;
55461;SDS011;41327;45.102;20.624;2022-07-10T02:52:08;1.65;;;1.23;;
55461;SDS011;41327;45.102;20.624;2022-07-10T02:54:34;2.40;;;1.40;;
55461;SDS011;41327;45.102;20.624;2022-07-10T02:57:00;1.27;;;1.10;;
55461;SDS011;41327;45.102;20.624;2022-07-10T02:59:25;2.30;;;1.20;;
55461;SDS011;41327;45.102;20.624;2022-07-10T03:01:51;1.88;;;1.30;;
55461;SDS011;41327;45.102;20.624;2022-07-10T03:04:17;1.83;;;1.13;;
55461;SDS011;41327;45.102;20.624;2022-07-10T03:06:42;2.20;;;1.20;;
55461;SDS011;41327;45.102;20.624;2022-07-10T03:09:08;1.50;;;1.10;;
55461;SDS011;41327;45.102;20.624;2022-07-10T03:11:33;1.00;;;0.90;;
55461;SDS011;41327;45.102;20.624;2022-07-10T03:13:59;1.20;;;1.00;;
55461;SDS011;41327;45.102;20.624;2022-07-10T03:16:24;1.17;;;1.08;;
55461;SDS011;41327;45.102;20.624;2022-07-10T03:18:50;1.45;;;1.00;;
55461;SDS011;41327;45.102;20.624;2022-07-10T03:21:15;1.65;;;1.52;;
55461;SDS011;41327;45.102;20.624;2022-07-10T03:23:41;1.63;;;1.10;;
55461;SDS011;41327;45.102;20.624;2022-07-10T03:26:06;1.50;;;1.10;;
55461;SDS011;41327;45.102;20.624;2022-07-10T03:28:32;1.40;;;1.30;;
55461;SDS011;41327;45.102;20.624;2022-07-10T03:30:58;1.67;;;1.25;;
55461;SDS011;41327;45.102;20.624;2022-07-10T03:33:24;1.02;;;0.88;;
55461;SDS011;41327;45.102;20.624;2022-07-10T03:35:49;1.38;;;1.02;;
55461;SDS011;41327;45.102;20.624;2022-07-10T03:38:15;1.63;;;1.13;;
55461;SDS011;41327;45.102;20.624;2022-07-10T03:40:40;1.58;;;1.48;;
55461;SDS011;41327;45.102;20.624;2022-07-10T03:43:06;1.50;;;0.90;;
55461;SDS011;41327;45.102;20.624;2022-07-10T03:45:31;1.23;;;1.10;;
55461;SDS011;41327;45.102;20.624;2022-07-10T03:47:57;1.33;;;1.10;;
55461;SDS011;41327;45.102;20.624;2022-07-10T03:50:23;0.85;;;0.80;;
55461;SDS011;41327;45.102;20.624;2022-07-10T03:52:48;0.98;;;0.90;;
55461;SDS011;41327;45.102;20.624;2022-07-10T03:55:14;1.58;;;1.00;;
55461;SDS011;41327;45.102;20.624;2022-07-10T03:57:39;1.48;;;1.00;;
55461;SDS011;41327;45.102;20.624;2022-07-10T04:00:27;1.48;;;1.05;;
55461;SDS011;41327;45.102;20.624;2022-07-10T04:03:00;1.73;;;1.00;;
55461;SDS011;41327;45.102;20.624;2022-07-10T04:05:26;1.13;;;1.02;;
55461;SDS011;41327;45.102;20.624;2022-07-10T04:07:53;1.20;;;0.95;;
55461;SDS011;41327;45.102;20.624;2022-07-10T04:10:19;1.27;;;1.05;;
55461;SDS011;41327;45.102;20.624;2022-07-10T04:12:46;1.05;;;0.95;;
55461;SDS011;41327;45.102;20.624;2022-07-10T04:15:12;1.13;;;0.90;;
55461;SDS011;41327;45.102;20.624;2022-07-10T04:17:38;1.23;;;0.90;;
55461;SDS011;41327;45.102;20.624;2022-07-10T04:20:03;1.98;;;1.17;;
55461;SDS011;41327;45.102;20.624;2022-07-10T04:22:29;1.23;;;0.90;;
55461;SDS011;41327;45.102;20.624;2022-07-10T04:24:55;1.08;;;1.00;;
55461;SDS011;41327;45.102;20.624;2022-07-10T04:27:20;1.20;;;1.05;;
55461;SDS011;41327;45.102;20.624;2022-07-10T04:29:46;1.13;;;1.02;;
55461;SDS011;41327;45.102;20.624;2022-07-10T04:32:12;1.00;;;0.90;;
55461;SDS011;41327;45.102;20.624;2022-07-10T04:34:38;1.27;;;1.10;;
55461;SDS011;41327;45.102;20.624;2022-07-10T04:37:04;1.38;;;0.90;;
55461;SDS011;41327;45.102;20.624;2022-07-10T04:39:30;1.25;;;1.15;;
55461;SDS011;41327;45.102;20.624;2022-07-10T04:41:56;1.00;;;0.90;;
55461;SDS011;41327;45.102;20.624;2022-07-10T04:44:21;0.95;;;0.90;;
55461;SDS011;41327;45.102;20.624;2022-07-10T04:46:47;1.10;;;1.00;;
55461;SDS011;41327;45.102;20.624;2022-07-10T04:49:13;0.95;;;0.85;;
55461;SDS011;41327;45.102;20.624;2022-07-10T04:51:38;1.33;;;1.17;;
55461;SDS011;41327;45.102;20.624;2022-07-10T04:54:04;1.13;;;1.02;;
55461;SDS011;41327;45.102;20.624;2022-07-10T04:56:29;0.85;;;0.70;;
55461;SDS011;41327;45.102;20.624;2022-07-10T04:58:55;1.75;;;1.02;;
55461;SDS011;41327;45.102;20.624;2022-07-10T05:01:20;0.90;;;0.90;;
55461;SDS011;41327;45.102;20.624;2022-07-10T05:03:46;0.80;;;0.80;;
55461;SDS011;41327;45.102;20.624;2022-07-10T05:06:12;1.15;;;0.90;;
55461;SDS011;41327;45.102;20.624;2022-07-10T05:08:37;0.82;;;0.80;;
55461;SDS011;41327;45.102;20.624;2022-07-10T05:11:03;1.33;;;0.80;;
55461;SDS011;41327;45.102;20.624;2022-07-10T05:13:28;1.85;;;0.85;;
55461;SDS011;41327;45.102;20.624;2022-07-10T05:15:54;0.70;;;0.70;;
55461;SDS011;41327;45.102;20.624;2022-07-10T05:18:19;1.50;;;0.82;;
55461;SDS011;41327;45.102;20.624;2022-07-10T05:20:45;0.90;;;0.85;;
55461;SDS011;41327;45.102;20.624;2022-07-10T05:23:13;1.13;;;0.90;;
55461;SDS011;41327;45.102;20.624;2022-07-10T05:25:38;1.17;;;0.98;;
55461;SDS011;41327;45.102;20.624;2022-07-10T05:28:04;0.80;;;0.75;;
55461;SDS011;41327;45.102;20.624;2022-07-10T05:30:30;0.95;;;0.88;;
55461;SDS011;41327;45.102;20.624;2022-07-10T05:32:56;0.88;;;0.88;;
55461;SDS011;41327;45.102;20.624;2022-07-10T05:35:21;0.93;;;0.82;;
55461;SDS011;41327;45.102;20.624;2022-07-10T05:37:47;1.05;;;0.95;;
55461;SDS011;41327;45.102;20.624;2022-07-10T05:40:13;1.20;;;0.95;;
55461;SDS011;41327;45.102;20.624;2022-07-10T05:42:38;3.33;;;1.00;;
55461;SDS011;41327;45.102;20.624;2022-07-10T05:45:04;1.10;;;0.80;;
55461;SDS011;41327;45.102;20.624;2022-07-10T05:47:31;0.80;;;0.80;;
55461;SDS011;41327;45.102;20.624;2022-07-10T05:49:58;0.90;;;0.90;;
55461;SDS011;41327;45.102;20.624;2022-07-10T05:52:24;0.70;;;0.70;;
55461;SDS011;41327;45.102;20.624;2022-07-10T05:54:49;1.05;;;0.80;;
55461;SDS011;41327;45.102;20.624;2022-07-10T05:57:16;1.23;;;0.95;;
55461;SDS011;41327;45.102;20.624;2022-07-10T05:59:42;2.65;;;1.00;;
55461;SDS011;41327;45.102;20.624;2022-07-10T06:02:07;1.65;;;1.00;;
55461;SDS011;41327;45.102;20.624;2022-07-10T06:04:33;1.00;;;0.85;;
55461;SDS011;41327;45.102;20.624;2022-07-10T06:06:58;4.30;;;1.00;;
55461;SDS011;41327;45.102;20.624;2022-07-10T06:09:24;2.17;;;1.10;;
55461;SDS011;41327;45.102;20.624;2022-07-10T06:11:49;1.10;;;0.73;;
55461;SDS011;41327;45.102;20.624;2022-07-10T06:14:15;2.42;;;0.90;;
55461;SDS011;41327;45.102;20.624;2022-07-10T06:16:41;1.00;;;0.82;;
55461;SDS011;41327;45.102;20.624;2022-07-10T06:19:06;1.20;;;0.90;;
55461;SDS011;41327;45.102;20.624;2022-07-10T06:21:32;0.90;;;0.90;;
55461;SDS011;41327;45.102;20.624;2022-07-10T06:23:58;1.00;;;0.90;;
55461;SDS011;41327;45.102;20.624;2022-07-10T06:26:24;0.98;;;0.88;;
55461;SDS011;41327;45.102;20.624;2022-07-10T06:28:50;0.80;;;0.80;;
55461;SDS011;41327;45.102;20.624;2022-07-10T06:31:15;1.00;;;0.80;;
55461;SDS011;41327;45.102;20.624;2022-07-10T06:33:41;0.98;;;0.88;;
55461;SDS011;41327;45.102;20.624;2022-07-10T06:36:07;0.77;;;0.73;;
55461;SDS011;41327;45.102;20.624;2022-07-10T06:38:33;0.98;;;0.90;;
55461;SDS011;41327;45.102;20.624;2022-07-10T06:40:58;0.93;;;0.75;;
55461;SDS011;41327;45.102;20.624;2022-07-10T06:43:24;0.93;;;0.90;;
55461;SDS011;41327;45.102;20.624;2022-07-10T06:45:49;1.63;;;1.02;;
55461;SDS011;41327;45.102;20.624;2022-07-10T06:48:15;1.80;;;1.00;;
55461;SDS011;41327;45.102;20.624;2022-07-10T06:50:41;2.40;;;0.90;;
55461;SDS011;41327;45.102;20.624;2022-07-10T06:53:06;1.42;;;1.00;;
55461;SDS011;41327;45.102;20.624;2022-07-10T06:55:32;1.00;;;0.95;;
55461;SDS011;41327;45.102;20.624;2022-07-10T06:57:58;1.13;;;1.00;;
55461;SDS011;41327;45.102;20.624;2022-07-10T07:00:24;1.30;;;1.00;;
55461;SDS011;41327;45.102;20.624;2022-07-10T07:02:50;1.50;;;1.02;;
55461;SDS011;41327;45.102;20.624;2022-07-10T07:05:15;0.90;;;0.90;;
55461;SDS011;41327;45.102;20.624;2022-07-10T07:07:41;1.30;;;0.98;;
55461;SDS011;41327;45.102;20.624;2022-07-10T07:10:07;1.25;;;1.15;;
55461;SDS011;41327;45.102;20.624;2022-07-10T07:12:34;1.30;;;1.02;;
55461;SDS011;41327;45.102;20.624;2022-07-10T07:14:59;1.13;;;1.02;;
55461;SDS011;41327;45.102;20.624;2022-07-10T07:17:25;1.25;;;1.15;;
55461;SDS011;41327;45.102;20.624;2022-07-10T07:19:58;1.23;;;1.00;;
55461;SDS011;41327;45.102;20.624;2022-07-10T07:22:43;1.20;;;1.08;;
55461;SDS011;41327;45.102;20.624;2022-07-10T07:25:28;1.23;;;1.10;;
55461;SDS011;41327;45.102;20.624;2022-07-10T07:27:53;1.02;;;0.93;;
55461;SDS011;41327;45.102;20.624;2022-07-10T07:30:19;0.90;;;0.70;;
55461;SDS011;41327;45.102;20.624;2022-07-10T07:32:45;1.55;;;0.90;;
55461;SDS011;41327;45.102;20.624;2022-07-10T07:35:13;2.50;;;1.30;;
55461;SDS011;41327;45.102;20.624;2022-07-10T07:40:07;1.23;;;1.00;;
55461;SDS011;41327;45.102;20.624;2022-07-10T07:42:34;1.15;;;1.05;;
55461;SDS011;41327;45.102;20.624;2022-07-10T07:45:00;1.80;;;1.17;;
55461;SDS011;41327;45.102;20.624;2022-07-10T07:47:26;1.52;;;1.30;;
55461;SDS011;41327;45.102;20.624;2022-07-10T07:49:52;1.20;;;1.10;;
55461;SDS011;41327;45.102;20.624;2022-07-10T07:52:17;1.95;;;1.38;;
55461;SDS011;41327;45.102;20.624;2022-07-10T07:54:43;1.58;;;1.20;;
55461;SDS011;41327;45.102;20.624;2022-07-10T07:57:09;2.92;;;1.20;;
55461;SDS011;41327;45.102;20.624;2022-07-10T07:59:34;1.48;;;1.30;;
55461;SDS011;41327;45.102;20.624;2022-07-10T08:02:00;1.42;;;1.33;;
55461;SDS011;41327;45.102;20.624;2022-07-10T08:04:26;2.75;;;1.20;;
55461;SDS011;41327;45.102;20.624;2022-07-10T08:06:51;1.67;;;1.58;;
55461;SDS011;41327;45.102;20.624;2022-07-10T08:09:20;2.38;;;1.70;;
55461;SDS011;41327;45.102;20.624;2022-07-10T08:11:46;1.95;;;1.42;;
55461;SDS011;41327;45.102;20.624;2022-07-10T08:14:12;4.85;;;1.73;;
55461;SDS011;41327;45.102;20.624;2022-07-10T08:16:37;2.70;;;1.92;;
55461;SDS011;41327;45.102;20.624;2022-07-10T08:19:03;3.70;;;1.70;;
55461;SDS011;41327;45.102;20.624;2022-07-10T08:21:29;2.83;;;1.95;;
55461;SDS011;41327;45.102;20.624;2022-07-10T08:23:55;2.85;;;1.65;;
55461;SDS011;41327;45.102;20.624;2022-07-10T08:26:21;2.47;;;1.50;;
55461;SDS011;41327;45.102;20.624;2022-07-10T08:28:46;1.30;;;1.10;;
55461;SDS011;41327;45.102;20.624;2022-07-10T08:31:12;1.92;;;1.40;;
55461;SDS011;41327;45.102;20.624;2022-07-10T08:33:37;1.55;;;1.42;;
55461;SDS011;41327;45.102;20.624;2022-07-10T08:36:03;1.77;;;1.40;;
55461;SDS011;41327;45.102;20.624;2022-07-10T08:38:29;2.10;;;1.23;;
55461;SDS011;41327;45.102;20.624;2022-07-10T08:40:55;2.30;;;1.63;;
55461;SDS011;41327;45.102;20.624;2022-07-10T08:43:24;1.70;;;1.60;;
55461;SDS011;41327;45.102;20.624;2022-07-10T08:45:50;1.73;;;1.30;;
55461;SDS011;41327;45.102;20.624;2022-07-10T08:48:19;1.75;;;1.42;;
55461;SDS011;41327;45.102;20.624;2022-07-10T08:50:47;4.00;;;1.35;;
55461;SDS011;41327;45.102;20.624;2022-07-10T08:53:15;1.70;;;1.35;;
55461;SDS011;41327;45.102;20.624;2022-07-10T08:55:45;3.38;;;1.42;;
55461;SDS011;41327;45.102;20.624;2022-07-10T08:58:10;1.45;;;1.35;;
55461;SDS011;41327;45.102;20.624;2022-07-10T09:00:37;1.35;;;1.25;;
55461;SDS011;41327;45.102;20.624;2022-07-10T09:03:03;1.40;;;1.30;;
55461;SDS011;41327;45.102;20.624;2022-07-10T09:05:28;2.22;;;1.60;;
55461;SDS011;41327;45.102;20.624;2022-07-10T09:07:54;1.58;;;1.23;;
55461;SDS011;41327;45.102;20.624;2022-07-10T09:10:23;1.50;;;1.25;;
55461;SDS011;41327;45.102;20.624;2022-07-10T09:15:19;1.42;;;1.15;;
55461;SDS011;41327;45.102;20.624;2022-07-10T09:17:54;1.25;;;1.15;;
55461;SDS011;41327;45.102;20.624;2022-07-10T09:20:27;1.30;;;1.17;;
55461;SDS011;41327;45.102;20.624;2022-07-10T09:22:55;1.25;;;1.10;;
55461;SDS011;41327;45.102;20.624;2022-07-10T09:25:24;1.20;;;1.10;;
55461;SDS011;41327;45.102;20.624;2022-07-10T09:27:57;1.17;;;1.08;;
55461;SDS011;41327;45.102;20.624;2022-07-10T09:30:34;1.38;;;1.27;;
55461;SDS011;41327;45.102;20.624;2022-07-10T09:33:18;2.33;;;1.30;;
55461;SDS011;41327;45.102;20.624;2022-07-10T09:35:57;1.48;;;1.38;;
55461;SDS011;41327;45.102;20.624;2022-07-10T09:41:37;1.48;;;1.35;;
55461;SDS011;41327;45.102;20.624;2022-07-10T09:43:57;1.23;;;1.10;;
55461;SDS011;41327;45.102;20.624;2022-07-10T09:46:42;1.65;;;1.27;;
55461;SDS011;41327;45.102;20.624;2022-07-10T09:49:13;1.27;;;1.17;;
55461;SDS011;41327;45.102;20.624;2022-07-10T09:51:40;1.30;;;1.00;;
55461;SDS011;41327;45.102;20.624;2022-07-10T09:54:07;1.60;;;1.08;;
55461;SDS011;41327;45.102;20.624;2022-07-10T09:56:38;1.40;;;1.30;;
55461;SDS011;41327;45.102;20.624;2022-07-10T09:59:11;1.40;;;1.30;;
55461;SDS011;41327;45.102;20.624;2022-07-10T10:01:38;1.17;;;1.08;;
55461;SDS011;41327;45.102;20.624;2022-07-10T10:04:07;1.70;;;1.20;;
55461;SDS011;41327;45.102;20.624;2022-07-10T10:06:33;1.73;;;1.50;;
55461;SDS011;41327;45.102;20.624;2022-07-10T10:09:08;1.27;;;1.10;;
55461;SDS011;41327;45.102;20.624;2022-07-10T10:11:40;1.25;;;1.15;;
55461;SDS011;41327;45.102;20.624;2022-07-10T10:14:07;1.70;;;1.20;;
55461;SDS011;41327;45.102;20.624;2022-07-10T10:16:33;1.23;;;1.13;;
55461;SDS011;41327;45.102;20.624;2022-07-10T10:18:59;1.30;;;1.20;;
55461;SDS011;41327;45.102;20.624;2022-07-10T10:21:43;1.23;;;1.10;;
55461;SDS011;41327;45.102;20.624;2022-07-10T10:24:09;0.98;;;0.93;;
55461;SDS011;41327;45.102;20.624;2022-07-10T10:26:35;1.42;;;1.33;;
55461;SDS011;41327;45.102;20.624;2022-07-10T10:29:01;1.58;;;1.15;;
55461;SDS011;41327;45.102;20.624;2022-07-10T10:31:27;1.20;;;1.10;;
55461;SDS011;41327;45.102;20.624;2022-07-10T10:33:55;1.42;;;1.20;;
55461;SDS011;41327;45.102;20.624;2022-07-10T10:39:12;1.30;;;1.20;;
55461;SDS011;41327;45.102;20.624;2022-07-10T10:41:44;1.40;;;1.30;;
55461;SDS011;41327;45.102;20.624;2022-07-10T10:46:57;1.27;;;1.17;;
55461;SDS011;41327;45.102;20.624;2022-07-10T10:52:15;1.23;;;1.10;;
55461;SDS011;41327;45.102;20.624;2022-07-10T10:57:22;1.42;;;1.27;;
55461;SDS011;41327;45.102;20.624;2022-07-10T10:59:49;1.27;;;1.17;;
55461;SDS011;41327;45.102;20.624;2022-07-10T11:02:26;3.25;;;1.40;;
55461;SDS011;41327;45.102;20.624;2022-07-10T11:07:53;10.18;;;3.33;;
55461;SDS011;41327;45.102;20.624;2022-07-10T11:10:29;21.52;;;7.60;;
55461;SDS011;41327;45.102;20.624;2022-07-10T11:13:08;31.17;;;9.25;;
55461;SDS011;41327;45.102;20.624;2022-07-10T11:15:36;41.53;;;10.68;;
55461;SDS011;41327;45.102;20.624;2022-07-10T11:18:21;39.95;;;11.90;;
55461;SDS011;41327;45.102;20.624;2022-07-10T11:20:49;42.25;;;12.82;;
55461;SDS011;41327;45.102;20.624;2022-07-10T11:26:13;33.67;;;11.75;;
55461;SDS011;41327;45.102;20.624;2022-07-10T11:31:25;33.67;;;12.98;;
55461;SDS011;41327;45.102;20.624;2022-07-10T11:33:53;31.52;;;11.80;;
55461;SDS011;41327;45.102;20.624;2022-07-10T11:36:26;33.95;;;11.23;;
55461;SDS011;41327;45.102;20.624;2022-07-10T11:38:58;28.70;;;11.00;;
55461;SDS011;41327;45.102;20.624;2022-07-10T11:43:57;32.85;;;11.05;;
55461;SDS011;41327;45.102;20.624;2022-07-10T11:46:25;37.22;;;13.05;;
55461;SDS011;41327;45.102;20.624;2022-07-10T11:48:52;33.15;;;11.20;;
55461;SDS011;41327;45.102;20.624;2022-07-10T11:51:25;26.55;;;11.10;;
55461;SDS011;41327;45.102;20.624;2022-07-10T11:56:34;29.08;;;10.73;;
55461;SDS011;41327;45.102;20.624;2022-07-10T11:59:01;30.88;;;11.27;;
55461;SDS011;41327;45.102;20.624;2022-07-10T12:01:41;22.83;;;10.30;;
55461;SDS011;41327;45.102;20.624;2022-07-10T12:04:07;23.73;;;10.10;;
55461;SDS011;41327;45.102;20.624;2022-07-10T12:06:34;29.67;;;11.00;;
55461;SDS011;41327;45.102;20.624;2022-07-10T12:09:08;17.92;;;8.60;;
55461;SDS011;41327;45.102;20.624;2022-07-10T12:11:35;24.75;;;9.93;;
55461;SDS011;41327;45.102;20.624;2022-07-10T12:14:11;22.63;;;9.27;;
55461;SDS011;41327;45.102;20.624;2022-07-10T12:16:41;25.33;;;10.20;;
55461;SDS011;41327;45.102;20.624;2022-07-10T12:19:15;26.55;;;9.45;;
55461;SDS011;41327;45.102;20.624;2022-07-10T12:21:42;22.17;;;9.73;;
55461;SDS011;41327;45.102;20.624;2022-07-10T12:24:09;21.95;;;9.27;;
55461;SDS011;41327;45.102;20.624;2022-07-10T12:26:36;18.48;;;8.02;;
55461;SDS011;41327;45.102;20.624;2022-07-10T12:29:10;21.42;;;10.90;;
55461;SDS011;41327;45.102;20.624;2022-07-10T12:31:37;21.85;;;10.43;;
55461;SDS011;41327;45.102;20.624;2022-07-10T12:34:03;23.88;;;10.10;;
55461;SDS011;41327;45.102;20.624;2022-07-10T12:39:19;24.48;;;9.38;;
55461;SDS011;41327;45.102;20.624;2022-07-10T12:41:53;22.23;;;9.18;;
55461;SDS011;41327;45.102;20.624;2022-07-10T12:44:35;19.42;;;8.60;;
55461;SDS011;41327;45.102;20.624;2022-07-10T12:47:02;21.25;;;8.15;;
55461;SDS011;41327;45.102;20.624;2022-07-10T12:49:28;19.08;;;8.73;;
55461;SDS011;41327;45.102;20.624;2022-07-10T12:51:54;20.13;;;7.97;;
55461;SDS011;41327;45.102;20.624;2022-07-10T12:54:35;18.83;;;8.00;;
55461;SDS011;41327;45.102;20.624;2022-07-10T12:57:05;16.52;;;8.45;;
55461;SDS011;41327;45.102;20.624;2022-07-10T12:59:35;20.73;;;8.35;;
55461;SDS011;41327;45.102;20.624;2022-07-10T13:02:17;17.17;;;7.85;;
55461;SDS011;41327;45.102;20.624;2022-07-10T13:04:57;16.10;;;8.23;;
55461;SDS011;41327;45.102;20.624;2022-07-10T13:07:33;19.00;;;8.27;;
55461;SDS011;41327;45.102;20.624;2022-07-10T13:10:03;16.98;;;9.13;;
55461;SDS011;41327;45.102;20.624;2022-07-10T13:12:30;16.85;;;8.25;;
55461;SDS011;41327;45.102;20.624;2022-07-10T13:14:56;18.75;;;7.97;;
55461;SDS011;41327;45.102;20.624;2022-07-10T13:17:22;17.05;;;8.57;;
55461;SDS011;41327;45.102;20.624;2022-07-10T13:19:48;17.17;;;7.47;;
55461;SDS011;41327;45.102;20.624;2022-07-10T13:22:15;13.90;;;7.65;;
55461;SDS011;41327;45.102;20.624;2022-07-10T13:24:40;14.93;;;7.22;;
55461;SDS011;41327;45.102;20.624;2022-07-10T13:27:06;15.30;;;7.38;;
55461;SDS011;41327;45.102;20.624;2022-07-10T13:29:32;16.60;;;6.40;;
55461;SDS011;41327;45.102;20.624;2022-07-10T13:31:57;16.45;;;6.47;;
55461;SDS011;41327;45.102;20.624;2022-07-10T13:34:23;20.77;;;7.32;;
55461;SDS011;41327;45.102;20.624;2022-07-10T13:36:48;12.77;;;6.80;;
55461;SDS011;41327;45.102;20.624;2022-07-10T13:39:15;19.23;;;7.55;;
55461;SDS011;41327;45.102;20.624;2022-07-10T13:41:41;12.50;;;5.97;;
55461;SDS011;41327;45.102;20.624;2022-07-10T13:44:06;14.63;;;5.88;;
55461;SDS011;41327;45.102;20.624;2022-07-10T13:46:32;12.52;;;7.00;;
55461;SDS011;41327;45.102;20.624;2022-07-10T13:48:58;13.07;;;6.20;;
55461;SDS011;41327;45.102;20.624;2022-07-10T13:51:23;12.50;;;6.38;;
55461;SDS011;41327;45.102;20.624;2022-07-10T13:53:49;11.95;;;6.47;;
55461;SDS011;41327;45.102;20.624;2022-07-10T13:56:14;16.23;;;6.20;;
55461;SDS011;41327;45.102;20.624;2022-07-10T13:58:40;14.35;;;6.15;;
55461;SDS011;41327;45.102;20.624;2022-07-10T14:01:05;14.68;;;6.13;;
55461;SDS011;41327;45.102;20.624;2022-07-10T14:03:31;14.52;;;6.22;;
55461;SDS011;41327;45.102;20.624;2022-07-10T14:05:57;11.55;;;5.82;;
55461;SDS011;41327;45.102;20.624;2022-07-10T14:08:23;13.43;;;6.63;;
55461;SDS011;41327;45.102;20.624;2022-07-10T14:10:49;10.70;;;5.90;;
55461;SDS011;41327;45.102;20.624;2022-07-10T14:13:14;13.43;;;6.00;;
55461;SDS011;41327;45.102;20.624;2022-07-10T14:15:40;12.13;;;5.57;;
55461;SDS011;41327;45.102;20.624;2022-07-10T14:18:09;10.55;;;6.15;;
55461;SDS011;41327;45.102;20.624;2022-07-10T14:20:35;11.40;;;6.22;;
55461;SDS011;41327;45.102;20.624;2022-07-10T14:23:19;11.90;;;6.40;;
55461;SDS011;41327;45.102;20.624;2022-07-10T14:25:45;12.48;;;6.22;;
55461;SDS011;41327;45.102;20.624;2022-07-10T14:28:10;12.73;;;5.55;;
55461;SDS011;41327;45.102;20.624;2022-07-10T14:30:38;10.20;;;4.93;;
55461;SDS011;41327;45.102;20.624;2022-07-10T14:33:04;9.88;;;5.55;;
55461;SDS011;41327;45.102;20.624;2022-07-10T14:35:30;9.98;;;4.90;;
55461;SDS011;41327;45.102;20.624;2022-07-10T14:37:55;11.93;;;6.10;;
55461;SDS011;41327;45.102;20.624;2022-07-10T14:40:21;9.73;;;5.25;;
55461;SDS011;41327;45.102;20.624;2022-07-10T14:42:46;9.13;;;5.43;;
55461;SDS011;41327;45.102;20.624;2022-07-10T14:45:12;10.13;;;5.13;;
55461;SDS011;41327;45.102;20.624;2022-07-10T14:47:37;6.90;;;4.20;;
55461;SDS011;41327;45.102;20.624;2022-07-10T14:50:03;9.13;;;4.72;;
55461;SDS011;41327;45.102;20.624;2022-07-10T14:52:29;9.90;;;4.60;;
55461;SDS011;41327;45.102;20.624;2022-07-10T14:54:56;8.43;;;4.95;;
55461;SDS011;41327;45.102;20.624;2022-07-10T14:57:22;12.38;;;4.47;;
55461;SDS011;41327;45.102;20.624;2022-07-10T14:59:48;6.40;;;3.55;;
55461;SDS011;41327;45.102;20.624;2022-07-10T15:02:13;7.30;;;3.80;;
55461;SDS011;41327;45.102;20.624;2022-07-10T15:04:38;6.45;;;3.20;;
55461;SDS011;41327;45.102;20.624;2022-07-10T15:07:04;6.28;;;3.28;;